Time;durP1;ratioP1;P1;durP2;ratioP2;P2;SDS_P1;SDS_P2;PMS_P1;PMS_P2;Temp;Humidity;BMP_temperature;BMP_pressure;BME280_temperature;BME280_humidity;BME280_pressure;Samples;Min_cycle;Max_cycle;Signal;HPM_P1;HPM_P2
2023/12/09 00:01:31;;;;;;;53.70;14.13;;;;;;;;;;5145496;27;20055;-56
2023/12/09 00:03:57;;;;;;;33.65;11.90;;;;;;;;;;5145780;27;20058;-56
2023/12/09 00:06:24;;;;;;;30.25;11.13;;;;;;;;;;5145502;27;20062;-54
2023/12/09 00:08:50;;;;;;;31.17;11.75;;;;;;;;;;5146064;27;20054;-55
2023/12/09 00:11:17;;;;;;;42.28;13.02;;;;;;;;;;5145857;27;20386;-56
2023/12/09 00:13:43;;;;;;;42.42;14.73;;;;;;;;;;5145925;27;20154;-55
2023/12/09 00:16:10;;;;;;;32.30;12.88;;;;;;;;;;5145161;27;20051;-56
2023/12/09 00:18:36;;;;;;;32.08;13.32;;;;;;;;;;5145364;27;20138;-56
2023/12/09 00:21:03;;;;;;;43.42;14.38;;;;;;;;;;5145962;27;20147;-56
2023/12/09 00:23:29;;;;;;;39.40;14.55;;;;;;;;;;5145348;27;20047;-55
2023/12/09 00:25:56;;;;;;;39.63;13.25;;;;;;;;;;5145561;27;20055;-57
2023/12/09 00:28:22;;;;;;;35.78;12.90;;;;;;;;;;5145788;27;20100;-55
2023/12/09 00:30:49;;;;;;;36.90;14.80;;;;;;;;;;5144863;27;20047;-57
2023/12/09 00:33:15;;;;;;;45.78;14.20;;;;;;;;;;5142303;27;20436;-55
2023/12/09 00:35:42;;;;;;;36.53;12.38;;;;;;;;;;5145909;27;20043;-57
2023/12/09 00:38:08;;;;;;;38.83;12.68;;;;;;;;;;5145235;27;20566;-56
2023/12/09 00:40:35;;;;;;;32.75;12.38;;;;;;;;;;5145075;27;20662;-55
2023/12/09 00:43:01;;;;;;;39.75;12.90;;;;;;;;;;5145026;27;20055;-57
2023/12/09 00:45:27;;;;;;;36.22;13.57;;;;;;;;;;5144690;27;20142;-55
2023/12/09 00:47:54;;;;;;;37.75;13.00;;;;;;;;;;5145047;27;20107;-58
2023/12/09 00:50:21;;;;;;;33.92;13.05;;;;;;;;;;5145466;27;20519;-56
2023/12/09 00:52:47;;;;;;;32.63;13.15;;;;;;;;;;5145010;27;20051;-55
2023/12/09 00:55:14;;;;;;;43.28;13.45;;;;;;;;;;5145704;27;20100;-56
2023/12/09 00:57:40;;;;;;;38.22;14.52;;;;;;;;;;5145339;27;20051;-57
2023/12/09 01:00:07;;;;;;;31.45;13.10;;;;;;;;;;5143458;27;20047;-55
2023/12/09 01:02:33;;;;;;;41.03;14.45;;;;;;;;;;5144954;27;20055;-56
2023/12/09 01:05:00;;;;;;;43.53;12.32;;;;;;;;;;5143602;27;20083;-56
2023/12/09 01:07:26;;;;;;;37.90;12.20;;;;;;;;;;5144827;27;20100;-55
2023/12/09 01:09:53;;;;;;;31.35;12.57;;;;;;;;;;5144531;27;20061;-57
2023/12/09 01:12:19;;;;;;;33.08;11.30;;;;;;;;;;5145195;27;20150;-55
2023/12/09 01:14:46;;;;;;;31.40;11.75;;;;;;;;;;5144689;27;20043;-57
2023/12/09 01:17:12;;;;;;;40.88;12.25;;;;;;;;;;5145322;27;20579;-56
2023/12/09 01:19:38;;;;;;;30.05;11.30;;;;;;;;;;5144627;27;20505;-56
2023/12/09 01:22:05;;;;;;;30.77;11.10;;;;;;;;;;5144878;27;20055;-57
2023/12/09 01:24:31;;;;;;;35.13;11.43;;;;;;;;;;5144624;27;20054;-55
2023/12/09 01:26:58;;;;;;;29.77;10.95;;;;;;;;;;5144493;27;20051;-54
2023/12/09 01:29:24;;;;;;;34.90;11.88;;;;;;;;;;5144030;27;20054;-57
2023/12/09 01:31:50;;;;;;;33.67;11.02;;;;;;;;;;5144074;27;20079;-58
2023/12/09 01:34:17;;;;;;;28.35;10.73;;;;;;;;;;5144682;27;20047;-57
2023/12/09 01:36:43;;;;;;;29.25;10.02;;;;;;;;;;5144573;27;20425;-56
2023/12/09 01:39:11;;;;;;;29.13;9.82;;;;;;;;;;5145414;27;20107;-57
2023/12/09 01:41:37;;;;;;;41.28;11.13;;;;;;;;;;5144352;27;20055;-57
2023/12/09 01:44:04;;;;;;;37.42;9.63;;;;;;;;;;5143563;27;20509;-56
2023/12/09 01:46:31;;;;;;;30.13;10.27;;;;;;;;;;5144109;27;20565;-57
2023/12/09 01:48:58;;;;;;;32.78;9.93;;;;;;;;;;5144272;27;20523;-57
2023/12/09 01:51:25;;;;;;;28.67;9.85;;;;;;;;;;5144375;27;20553;-57
2023/12/09 01:53:51;;;;;;;37.30;10.77;;;;;;;;;;5144486;27;20054;-56
2023/12/09 01:56:20;;;;;;;31.73;8.95;;;;;;;;;;5144226;27;20536;-57
2023/12/09 01:58:46;;;;;;;34.53;9.05;;;;;;;;;;5144115;27;20207;-57
2023/12/09 02:01:13;;;;;;;30.65;9.15;;;;;;;;;;5144540;27;20436;-57
2023/12/09 02:03:39;;;;;;;32.40;8.93;;;;;;;;;;5143612;27;20051;-56
2023/12/09 02:06:06;;;;;;;27.10;10.02;;;;;;;;;;5142943;27;20058;-55
2023/12/09 02:08:33;;;;;;;28.02;8.68;;;;;;;;;;5144018;27;20462;-55
2023/12/09 02:11:05;;;;;;;25.77;9.85;;;;;;;;;;5143675;27;20054;-55
2023/12/09 02:13:54;;;;;;;23.52;8.27;;;;;;;;;;5143581;27;20640;-56
2023/12/09 02:16:24;;;;;;;28.90;8.65;;;;;;;;;;5130632;27;20509;-56
2023/12/09 02:18:51;;;;;;;34.90;8.85;;;;;;;;;;5145075;27;20058;-55
2023/12/09 02:21:18;;;;;;;22.20;7.82;;;;;;;;;;5144442;27;20338;-57
2023/12/09 02:23:44;;;;;;;28.38;8.75;;;;;;;;;;5144149;27;20394;-56
2023/12/09 02:26:14;;;;;;;29.83;9.20;;;;;;;;;;5143599;27;20524;-56
2023/12/09 02:28:43;;;;;;;31.67;9.25;;;;;;;;;;5143844;27;20054;-56
2023/12/09 02:31:15;;;;;;;32.33;10.35;;;;;;;;;;5143839;27;20051;-57
2023/12/09 02:33:43;;;;;;;28.90;10.77;;;;;;;;;;5142221;27;20058;-55
2023/12/09 02:36:12;;;;;;;28.42;9.57;;;;;;;;;;5143531;27;20055;-57
2023/12/09 02:38:39;;;;;;;31.55;8.35;;;;;;;;;;5143445;27;20080;-56
2023/12/09 02:41:09;;;;;;;34.20;9.27;;;;;;;;;;5143632;27;20059;-56
2023/12/09 02:43:36;;;;;;;30.42;9.48;;;;;;;;;;5142930;27;20058;-57
2023/12/09 02:46:02;;;;;;;28.38;9.68;;;;;;;;;;5143707;27;20578;-57
2023/12/09 02:48:29;;;;;;;36.58;9.10;;;;;;;;;;5143658;27;20134;-57
2023/12/09 02:50:55;;;;;;;26.88;9.65;;;;;;;;;;5143447;27;20083;-57
2023/12/09 02:53:22;;;;;;;33.88;9.88;;;;;;;;;;5144049;27;20222;-57
2023/12/09 02:55:48;;;;;;;26.55;8.73;;;;;;;;;;5143526;27;20051;-57
2023/12/09 02:58:15;;;;;;;29.27;9.52;;;;;;;;;;5147088;27;20139;-56
2023/12/09 03:00:42;;;;;;;27.25;8.40;;;;;;;;;;5147371;27;20074;-57
2023/12/09 03:03:09;;;;;;;25.50;8.55;;;;;;;;;;5147011;27;20055;-57
2023/12/09 03:05:35;;;;;;;33.85;9.02;;;;;;;;;;5146761;27;20055;-56
2023/12/09 03:08:02;;;;;;;28.88;8.10;;;;;;;;;;5147375;27;20150;-56
2023/12/09 03:10:28;;;;;;;31.20;10.00;;;;;;;;;;5146286;27;20123;-56
2023/12/09 03:12:55;;;;;;;28.30;8.07;;;;;;;;;;5147090;27;20047;-57
2023/12/09 03:15:21;;;;;;;30.02;8.70;;;;;;;;;;5147241;27;20501;-56
2023/12/09 03:17:48;;;;;;;31.30;8.00;;;;;;;;;;5146138;27;20502;-54
2023/12/09 03:20:14;;;;;;;34.25;8.48;;;;;;;;;;5146526;27;20047;-55
2023/12/09 03:22:41;;;;;;;34.78;9.77;;;;;;;;;;5146530;27;20051;-56
2023/12/09 03:25:07;;;;;;;30.00;10.32;;;;;;;;;;5146506;27;20055;-56
2023/12/09 03:27:34;;;;;;;24.75;9.73;;;;;;;;;;5146734;27;20138;-57
2023/12/09 03:30:00;;;;;;;25.50;9.32;;;;;;;;;;5146570;27;20108;-57
2023/12/09 03:32:27;;;;;;;31.33;10.75;;;;;;;;;;5146083;27;20062;-56
2023/12/09 03:34:54;;;;;;;36.55;11.43;;;;;;;;;;5146750;27;20094;-54
2023/12/09 03:37:20;;;;;;;35.58;10.75;;;;;;;;;;5147307;27;20088;-56
2023/12/09 03:39:46;;;;;;;31.00;11.07;;;;;;;;;;5145667;27;20637;-55
2023/12/09 03:42:13;;;;;;;33.78;9.68;;;;;;;;;;5146623;27;20051;-57
2023/12/09 03:44:39;;;;;;;29.85;10.20;;;;;;;;;;5146492;27;20066;-56
2023/12/09 03:47:06;;;;;;;24.75;9.95;;;;;;;;;;5146123;27;20051;-57
2023/12/09 03:49:46;;;;;;;34.38;10.10;;;;;;;;;;5146525;27;20062;-57
2023/12/09 03:52:13;;;;;;;29.33;9.38;;;;;;;;;;5146418;27;20142;-57
2023/12/09 03:54:43;;;;;;;29.70;10.35;;;;;;;;;;5145164;27;20055;-57
2023/12/09 03:57:12;;;;;;;31.85;9.88;;;;;;;;;;5145391;27;20055;-56
2023/12/09 03:59:39;;;;;;;38.90;9.32;;;;;;;;;;5145154;27;20051;-54
2023/12/09 04:02:05;;;;;;;35.85;12.02;;;;;;;;;;5146289;27;20055;-55
2023/12/09 04:04:32;;;;;;;36.10;10.40;;;;;;;;;;5145979;27;20529;-56
2023/12/09 04:06:58;;;;;;;27.00;10.48;;;;;;;;;;5145848;27;20047;-56
2023/12/09 04:09:25;;;;;;;32.33;10.35;;;;;;;;;;5145745;27;20055;-55
2023/12/09 04:11:52;;;;;;;30.13;10.02;;;;;;;;;;5146650;27;20205;-57
2023/12/09 04:14:18;;;;;;;36.55;10.25;;;;;;;;;;5146048;27;20047;-56
2023/12/09 04:16:44;;;;;;;23.15;8.93;;;;;;;;;;5146063;27;20058;-56
2023/12/09 04:19:11;;;;;;;32.35;9.73;;;;;;;;;;5146293;27;20416;-56
2023/12/09 04:21:38;;;;;;;27.40;9.05;;;;;;;;;;5145358;27;20051;-55
2023/12/09 04:24:04;;;;;;;23.00;9.45;;;;;;;;;;5146122;27;20055;-56
2023/12/09 04:26:31;;;;;;;31.20;9.38;;;;;;;;;;5145427;27;20047;-56
2023/12/09 04:28:57;;;;;;;38.22;9.70;;;;;;;;;;5145495;27;20062;-57
2023/12/09 04:31:24;;;;;;;25.13;10.27;;;;;;;;;;5145400;27;20055;-56
2023/12/09 04:33:50;;;;;;;30.48;11.20;;;;;;;;;;5146207;27;20048;-58
2023/12/09 04:36:16;;;;;;;28.58;9.95;;;;;;;;;;5145465;27;20047;-55
2023/12/09 04:38:43;;;;;;;25.55;9.30;;;;;;;;;;5145182;27;20558;-55
2023/12/09 04:41:09;;;;;;;34.40;10.23;;;;;;;;;;5145281;27;20051;-57
2023/12/09 04:43:36;;;;;;;35.28;9.52;;;;;;;;;;5145311;27;20051;-57
2023/12/09 04:46:02;;;;;;;29.40;10.10;;;;;;;;;;5144843;27;20051;-55
2023/12/09 04:48:29;;;;;;;38.55;11.10;;;;;;;;;;5144919;27;20084;-57
2023/12/09 04:50:56;;;;;;;23.33;8.77;;;;;;;;;;5145024;27;20051;-55
2023/12/09 04:53:22;;;;;;;31.60;9.73;;;;;;;;;;5145706;27;20473;-56
2023/12/09 04:55:49;;;;;;;31.83;10.05;;;;;;;;;;5145793;27;20058;-57
2023/12/09 04:58:15;;;;;;;31.17;9.52;;;;;;;;;;5145409;27;20048;-57
2023/12/09 05:00:41;;;;;;;29.10;9.60;;;;;;;;;;5145106;27;20086;-55
2023/12/09 05:03:08;;;;;;;32.35;10.75;;;;;;;;;;5145380;27;20090;-56
2023/12/09 05:05:35;;;;;;;35.97;9.82;;;;;;;;;;5144710;27;20054;-56
2023/12/09 05:08:01;;;;;;;32.58;10.57;;;;;;;;;;5145466;27;20575;-56
2023/12/09 05:10:28;;;;;;;39.63;10.00;;;;;;;;;;5144335;27;20079;-54
2023/12/09 05:12:54;;;;;;;35.25;9.73;;;;;;;;;;5145479;27;20059;-55
2023/12/09 05:15:20;;;;;;;41.15;9.77;;;;;;;;;;5145463;27;20533;-54
2023/12/09 05:17:47;;;;;;;42.55;10.18;;;;;;;;;;5144777;27;20602;-54
2023/12/09 05:20:14;;;;;;;36.03;10.10;;;;;;;;;;5144033;27;20047;-55
2023/12/09 05:22:40;;;;;;;28.67;8.52;;;;;;;;;;5144934;27;20207;-55
2023/12/09 05:25:07;;;;;;;30.08;9.82;;;;;;;;;;5144953;27;20059;-56
2023/12/09 05:27:33;;;;;;;29.02;9.45;;;;;;;;;;5144040;27;20051;-53
2023/12/09 05:29:59;;;;;;;33.90;9.18;;;;;;;;;;5143890;27;20515;-56
2023/12/09 05:32:26;;;;;;;36.85;9.18;;;;;;;;;;5143628;27;20059;-56
2023/12/09 05:34:53;;;;;;;29.15;9.07;;;;;;;;;;5144287;27;20050;-54
2023/12/09 05:37:19;;;;;;;28.52;9.30;;;;;;;;;;5145434;27;20070;-54
2023/12/09 05:39:45;;;;;;;23.05;9.18;;;;;;;;;;5145161;27;20496;-55
2023/12/09 05:42:12;;;;;;;31.98;8.90;;;;;;;;;;5144891;27;20081;-57
2023/12/09 05:44:39;;;;;;;34.60;10.00;;;;;;;;;;5144251;27;20047;-56
2023/12/09 05:47:05;;;;;;;29.77;9.27;;;;;;;;;;5144613;27;20588;-56
2023/12/09 05:49:32;;;;;;;27.60;9.20;;;;;;;;;;5144054;27;20122;-57
2023/12/09 05:51:58;;;;;;;31.05;10.88;;;;;;;;;;5141278;27;20047;-55
2023/12/09 05:54:25;;;;;;;22.13;8.88;;;;;;;;;;5135051;27;20587;-55
2023/12/09 05:56:51;;;;;;;34.60;11.57;;;;;;;;;;5144164;27;20051;-55
2023/12/09 05:59:18;;;;;;;40.45;11.15;;;;;;;;;;5144912;27;20474;-56
2023/12/09 06:01:44;;;;;;;33.30;10.20;;;;;;;;;;5144203;27;20055;-55
2023/12/09 06:04:11;;;;;;;30.15;10.57;;;;;;;;;;5143592;27;20529;-54
2023/12/09 06:06:37;;;;;;;32.90;10.18;;;;;;;;;;5142550;27;20424;-57
2023/12/09 06:09:04;;;;;;;43.53;10.68;;;;;;;;;;5140135;27;20051;-57
2023/12/09 06:11:31;;;;;;;32.00;10.65;;;;;;;;;;5123315;27;20055;-57
2023/12/09 06:13:57;;;;;;;25.55;10.93;;;;;;;;;;5124495;27;20079;-58
2023/12/09 06:16:24;;;;;;;31.00;10.55;;;;;;;;;;5131998;27;20104;-57
2023/12/09 06:18:50;;;;;;;29.10;9.73;;;;;;;;;;5144031;27;20604;-55
2023/12/09 06:21:24;;;;;;;31.20;10.90;;;;;;;;;;5144533;27;20051;-57
2023/12/09 06:23:51;;;;;;;26.65;9.63;;;;;;;;;;5138249;27;20171;-55
2023/12/09 06:26:18;;;;;;;31.38;9.32;;;;;;;;;;5137585;27;20055;-55
2023/12/09 06:28:45;;;;;;;28.50;9.63;;;;;;;;;;5123798;27;20058;-56
2023/12/09 06:31:12;;;;;;;24.98;8.75;;;;;;;;;;5124171;27;20051;-56
2023/12/09 06:33:38;;;;;;;29.80;9.30;;;;;;;;;;5125810;27;20498;-56
2023/12/09 06:36:06;;;;;;;27.05;9.27;;;;;;;;;;5126956;27;20078;-55
2023/12/09 06:38:37;;;;;;;27.30;9.10;;;;;;;;;;5127217;27;20055;-56
2023/12/09 06:41:03;;;;;;;29.00;9.02;;;;;;;;;;5126781;27;20060;-55
2023/12/09 06:43:30;;;;;;;22.95;8.52;;;;;;;;;;5134239;27;20051;-57
2023/12/09 06:45:56;;;;;;;28.42;8.70;;;;;;;;;;5147182;27;20139;-56
2023/12/09 06:48:23;;;;;;;30.77;9.80;;;;;;;;;;5136619;27;20138;-55
2023/12/09 06:50:49;;;;;;;26.92;9.55;;;;;;;;;;5136015;27;20052;-55
2023/12/09 06:53:16;;;;;;;25.75;9.68;;;;;;;;;;5145468;27;20059;-55
2023/12/09 06:55:42;;;;;;;25.65;8.00;;;;;;;;;;5146374;27;20055;-55
2023/12/09 06:58:08;;;;;;;26.50;8.60;;;;;;;;;;5146911;27;20139;-56
2023/12/09 07:00:36;;;;;;;24.35;8.63;;;;;;;;;;5146464;27;20065;-54
2023/12/09 07:03:02;;;;;;;27.48;8.77;;;;;;;;;;5146383;27;20047;-55
2023/12/09 07:05:29;;;;;;;25.15;7.75;;;;;;;;;;5147008;27;20077;-55
2023/12/09 07:07:55;;;;;;;34.17;10.10;;;;;;;;;;5146968;27;20146;-56
2023/12/09 07:10:22;;;;;;;32.42;8.80;;;;;;;;;;5146506;27;20054;-56
2023/12/09 07:12:48;;;;;;;23.77;8.90;;;;;;;;;;5146992;27;20097;-56
2023/12/09 07:15:15;;;;;;;29.05;7.32;;;;;;;;;;5146703;27;20457;-56
2023/12/09 07:17:42;;;;;;;28.30;8.15;;;;;;;;;;5146319;27;20497;-56
2023/12/09 07:20:09;;;;;;;31.80;7.68;;;;;;;;;;5146179;27;20142;-56
2023/12/09 07:22:36;;;;;;;29.80;8.15;;;;;;;;;;5147001;27;20564;-56
2023/12/09 07:25:02;;;;;;;26.45;8.35;;;;;;;;;;5160051;27;20086;-57
2023/12/09 07:27:29;;;;;;;26.67;8.45;;;;;;;;;;5145681;27;20621;-57
2023/12/09 07:29:55;;;;;;;27.98;8.27;;;;;;;;;;5145454;27;20052;-56
2023/12/09 07:32:22;;;;;;;20.60;7.03;;;;;;;;;;5146264;27;20453;-55
2023/12/09 07:34:48;;;;;;;24.67;7.55;;;;;;;;;;5146556;27;20907;-56
2023/12/09 07:37:15;;;;;;;26.92;8.23;;;;;;;;;;5132827;27;20630;-56
2023/12/09 07:39:42;;;;;;;22.98;7.50;;;;;;;;;;5146316;27;20051;-53
2023/12/09 07:42:09;;;;;;;26.88;7.95;;;;;;;;;;5145703;27;20055;-56
2023/12/09 07:44:35;;;;;;;28.02;7.15;;;;;;;;;;5144725;27;20043;-56
2023/12/09 07:47:02;;;;;;;21.00;6.22;;;;;;;;;;5145940;27;20149;-55
2023/12/09 07:49:28;;;;;;;18.10;6.40;;;;;;;;;;5145326;27;20051;-57
2023/12/09 07:51:55;;;;;;;27.77;7.18;;;;;;;;;;5145438;27;20090;-57
2023/12/09 07:54:21;;;;;;;25.40;6.47;;;;;;;;;;5144676;27;20522;-56
2023/12/09 07:56:48;;;;;;;22.38;6.13;;;;;;;;;;5145165;27;20075;-55
2023/12/09 07:59:14;;;;;;;20.25;6.43;;;;;;;;;;5145953;27;20075;-57
2023/12/09 08:01:40;;;;;;;24.15;6.47;;;;;;;;;;5145269;27;20503;-57
2023/12/09 08:04:07;;;;;;;21.33;6.32;;;;;;;;;;5146064;27;20557;-56
2023/12/09 08:06:34;;;;;;;24.13;6.85;;;;;;;;;;5145593;27;20142;-57
2023/12/09 08:09:00;;;;;;;20.98;5.45;;;;;;;;;;5146053;27;20069;-56
2023/12/09 08:11:26;;;;;;;21.50;5.97;;;;;;;;;;5145277;27;20232;-55
2023/12/09 08:13:53;;;;;;;20.05;5.30;;;;;;;;;;5145084;27;20051;-56
2023/12/09 08:16:20;;;;;;;18.95;5.45;;;;;;;;;;5145450;27;20558;-56
2023/12/09 08:18:48;;;;;;;28.98;6.70;;;;;;;;;;5144915;27;20061;-55
2023/12/09 08:21:14;;;;;;;21.58;5.57;;;;;;;;;;5145776;27;20513;-57
2023/12/09 08:23:41;;;;;;;13.93;4.95;;;;;;;;;;5145411;27;20146;-57
2023/12/09 08:26:08;;;;;;;14.63;5.47;;;;;;;;;;5143110;27;20059;-56
2023/12/09 08:28:34;;;;;;;19.65;5.18;;;;;;;;;;5144713;27;20555;-56
2023/12/09 08:31:03;;;;;;;22.90;5.95;;;;;;;;;;5145286;27;20130;-57
2023/12/09 08:33:30;;;;;;;17.50;5.13;;;;;;;;;;5144960;27;20341;-57
2023/12/09 08:35:57;;;;;;;18.23;5.95;;;;;;;;;;5148774;27;20119;-55
2023/12/09 08:38:23;;;;;;;24.38;5.65;;;;;;;;;;5154415;27;20154;-55
2023/12/09 08:40:50;;;;;;;19.08;5.63;;;;;;;;;;5144746;27;20074;-55
2023/12/09 08:43:16;;;;;;;14.13;5.47;;;;;;;;;;5144726;27;20522;-57
2023/12/09 08:45:42;;;;;;;33.30;6.85;;;;;;;;;;5140640;27;20469;-57
2023/12/09 08:48:09;;;;;;;17.08;5.47;;;;;;;;;;5139629;27;20051;-57
2023/12/09 08:50:35;;;;;;;15.70;5.43;;;;;;;;;;5144312;27;20574;-56
2023/12/09 08:53:02;;;;;;;14.43;4.30;;;;;;;;;;5145290;27;20055;-57
2023/12/09 08:55:29;;;;;;;18.77;4.22;;;;;;;;;;5138890;27;20448;-57
2023/12/09 08:57:55;;;;;;;14.38;3.90;;;;;;;;;;5131148;27;20067;-56
2023/12/09 09:00:25;;;;;;;14.80;5.15;;;;;;;;;;5120351;27;20051;-55
2023/12/09 09:02:55;;;;;;;23.30;4.57;;;;;;;;;;5133830;27;20047;-57
2023/12/09 09:05:25;;;;;;;15.27;4.75;;;;;;;;;;5143364;27;20067;-57
2023/12/09 09:07:52;;;;;;;17.17;4.18;;;;;;;;;;5145060;27;20076;-58
2023/12/09 09:10:22;;;;;;;23.33;5.65;;;;;;;;;;5128192;27;20196;-57
2023/12/09 09:12:49;;;;;;;10.70;4.32;;;;;;;;;;5144144;27;20055;-57
2023/12/09 09:15:16;;;;;;;16.60;4.47;;;;;;;;;;5144840;27;20059;-55
2023/12/09 09:17:43;;;;;;;16.38;4.90;;;;;;;;;;5143812;27;20051;-57
2023/12/09 09:20:10;;;;;;;15.25;4.72;;;;;;;;;;5144318;27;20050;-55
2023/12/09 09:22:37;;;;;;;24.80;4.82;;;;;;;;;;5143399;27;20134;-56
2023/12/09 09:25:04;;;;;;;26.20;5.35;;;;;;;;;;5144310;27;20054;-58
2023/12/09 09:27:30;;;;;;;15.77;5.00;;;;;;;;;;5144521;27;20488;-57
2023/12/09 09:29:57;;;;;;;15.38;3.85;;;;;;;;;;5144499;27;20139;-57
2023/12/09 09:32:24;;;;;;;16.67;4.18;;;;;;;;;;5144117;27;20163;-57
2023/12/09 09:34:50;;;;;;;17.05;4.13;;;;;;;;;;5144203;27;20059;-54
2023/12/09 09:37:17;;;;;;;25.70;4.82;;;;;;;;;;5143161;27;20084;-53
2023/12/09 09:39:43;;;;;;;13.98;4.38;;;;;;;;;;5144167;27;20055;-55
2023/12/09 09:42:16;;;;;;;13.35;4.40;;;;;;;;;;5144170;27;20178;-54
2023/12/09 09:44:49;;;;;;;13.82;4.43;;;;;;;;;;5144572;27;20577;-56
2023/12/09 09:47:18;;;;;;;26.40;5.95;;;;;;;;;;5144292;27;20738;-56
2023/12/09 09:49:45;;;;;;;15.77;4.88;;;;;;;;;;5144595;27;20059;-56
2023/12/09 09:52:13;;;;;;;15.15;4.30;;;;;;;;;;5144112;27;20058;-56
2023/12/09 09:54:40;;;;;;;12.48;4.07;;;;;;;;;;5143804;27;20136;-55
2023/12/09 09:57:08;;;;;;;15.82;4.15;;;;;;;;;;5143073;27;20049;-55
2023/12/09 09:59:35;;;;;;;18.10;4.82;;;;;;;;;;5143472;27;20047;-55
2023/12/09 10:02:03;;;;;;;22.60;4.30;;;;;;;;;;5144089;27;20047;-55
2023/12/09 10:04:29;;;;;;;15.95;4.85;;;;;;;;;;5143713;27;20091;-57
2023/12/09 10:06:57;;;;;;;14.27;4.28;;;;;;;;;;5148184;27;20051;-57
2023/12/09 10:09:24;;;;;;;11.23;4.00;;;;;;;;;;5147359;27;20138;-56
2023/12/09 10:11:50;;;;;;;16.65;4.55;;;;;;;;;;5148096;27;20061;-55
2023/12/09 10:14:17;;;;;;;17.70;4.60;;;;;;;;;;5147963;27;20098;-55
2023/12/09 10:16:45;;;;;;;21.60;4.18;;;;;;;;;;5147716;27;20075;-56
2023/12/09 10:19:16;;;;;;;14.68;4.90;;;;;;;;;;5148606;27;20527;-57
2023/12/09 10:21:43;;;;;;;16.80;4.25;;;;;;;;;;5147801;27;20078;-58
2023/12/09 10:24:10;;;;;;;20.90;5.00;;;;;;;;;;5147539;27;20051;-57
2023/12/09 10:26:37;;;;;;;13.88;4.80;;;;;;;;;;5147631;27;20493;-57
2023/12/09 10:29:03;;;;;;;11.73;4.07;;;;;;;;;;5147670;27;20116;-56
2023/12/09 10:31:30;;;;;;;11.23;4.70;;;;;;;;;;5147094;27;20078;-56
2023/12/09 10:33:56;;;;;;;10.60;3.58;;;;;;;;;;5148090;27;20051;-57
2023/12/09 10:36:23;;;;;;;12.20;3.95;;;;;;;;;;5147051;27;20048;-55
2023/12/09 10:38:51;;;;;;;14.27;5.20;;;;;;;;;;5147484;27;20062;-56
2023/12/09 10:41:18;;;;;;;14.65;3.85;;;;;;;;;;5148407;27;20139;-56
2023/12/09 10:43:45;;;;;;;8.32;3.33;;;;;;;;;;5147334;27;20058;-57
2023/12/09 10:46:11;;;;;;;17.60;5.35;;;;;;;;;;5148368;27;20508;-57
2023/12/09 10:48:39;;;;;;;11.30;3.88;;;;;;;;;;5147240;27;20051;-55
2023/12/09 10:51:05;;;;;;;15.48;3.70;;;;;;;;;;5147619;27;20055;-56
2023/12/09 10:53:32;;;;;;;12.88;3.63;;;;;;;;;;5146979;27;20505;-56
2023/12/09 10:55:59;;;;;;;11.93;4.50;;;;;;;;;;5147173;27;20123;-57
2023/12/09 10:58:27;;;;;;;14.73;4.55;;;;;;;;;;5145700;27;20524;-57
2023/12/09 11:00:56;;;;;;;15.45;5.38;;;;;;;;;;5146627;27;20056;-56
2023/12/09 11:03:23;;;;;;;14.55;6.78;;;;;;;;;;5147859;27;20092;-57
2023/12/09 11:05:51;;;;;;;13.65;6.93;;;;;;;;;;5147604;27;20570;-55
2023/12/09 11:08:18;;;;;;;12.75;6.93;;;;;;;;;;5145831;27;20039;-59
2023/12/09 11:10:46;;;;;;;20.55;6.90;;;;;;;;;;5147214;27;20567;-56
2023/12/09 11:13:12;;;;;;;13.75;5.05;;;;;;;;;;5146996;27;20055;-56
2023/12/09 11:15:39;;;;;;;13.52;4.70;;;;;;;;;;5146826;27;20039;-55
2023/12/09 11:18:09;;;;;;;13.40;4.35;;;;;;;;;;5146691;27;20058;-57
2023/12/09 11:20:40;;;;;;;11.95;3.90;;;;;;;;;;5146908;27;20061;-57
2023/12/09 11:23:09;;;;;;;13.70;4.00;;;;;;;;;;5146730;27;20134;-57
2023/12/09 11:25:37;;;;;;;10.32;2.95;;;;;;;;;;5146819;27;20237;-57
2023/12/09 11:28:04;;;;;;;12.20;3.03;;;;;;;;;;5146794;27;20065;-56
2023/12/09 11:30:44;;;;;;;10.13;3.25;;;;;;;;;;5146961;27;20058;-55
2023/12/09 11:33:11;;;;;;;12.50;3.60;;;;;;;;;;5146391;27;20150;-57
2023/12/09 11:35:38;;;;;;;9.23;3.33;;;;;;;;;;5146362;27;20138;-56
2023/12/09 11:38:06;;;;;;;11.00;3.40;;;;;;;;;;5145921;27;20512;-58
2023/12/09 11:40:32;;;;;;;10.20;2.55;;;;;;;;;;5144976;27;20051;-55
2023/12/09 11:43:03;;;;;;;8.63;2.67;;;;;;;;;;5146436;27;20131;-57
2023/12/09 11:45:29;;;;;;;12.13;3.40;;;;;;;;;;5146931;27;20574;-56
2023/12/09 11:47:57;;;;;;;11.77;2.70;;;;;;;;;;5145395;27;20145;-56
2023/12/09 11:50:24;;;;;;;9.80;3.08;;;;;;;;;;5140036;27;20055;-54
2023/12/09 11:52:51;;;;;;;14.05;4.85;;;;;;;;;;5129620;27;20056;-60
2023/12/09 11:55:19;;;;;;;10.32;2.63;;;;;;;;;;5138480;27;20229;-55
2023/12/09 11:57:45;;;;;;;9.93;3.15;;;;;;;;;;5135841;27;20047;-55
2023/12/09 12:00:13;;;;;;;11.70;2.30;;;;;;;;;;5145367;27;20419;-56
2023/12/09 12:02:42;;;;;;;15.85;3.60;;;;;;;;;;5146479;27;20053;-58
2023/12/09 12:05:09;;;;;;;10.23;4.68;;;;;;;;;;5146008;27;20053;-57
2023/12/09 12:07:36;;;;;;;8.65;2.20;;;;;;;;;;5128483;27;20108;-56
2023/12/09 12:10:03;;;;;;;15.15;4.32;;;;;;;;;;5130822;27;20051;-56
2023/12/09 12:12:30;;;;;;;14.32;6.43;;;;;;;;;;5145955;27;20047;-56
2023/12/09 12:14:57;;;;;;;16.40;3.85;;;;;;;;;;5144140;27;20048;-55
2023/12/09 12:17:24;;;;;;;10.82;2.60;;;;;;;;;;5143832;27;20567;-56
2023/12/09 12:19:51;;;;;;;15.57;2.83;;;;;;;;;;5134355;27;20047;-56
2023/12/09 12:22:18;;;;;;;7.40;2.17;;;;;;;;;;5126959;27;20151;-55
2023/12/09 12:24:45;;;;;;;11.80;3.15;;;;;;;;;;5144163;27;20579;-55
2023/12/09 12:27:12;;;;;;;4.72;2.00;;;;;;;;;;5146435;27;20504;-55
2023/12/09 12:29:38;;;;;;;6.20;2.17;;;;;;;;;;5145881;27;20051;-51
2023/12/09 12:32:06;;;;;;;9.82;2.78;;;;;;;;;;5131632;27;20144;-53
2023/12/09 12:34:32;;;;;;;6.70;2.55;;;;;;;;;;5124305;27;20550;-50
2023/12/09 12:36:59;;;;;;;8.15;2.20;;;;;;;;;;5124995;27;20083;-51
2023/12/09 12:39:25;;;;;;;3.47;1.80;;;;;;;;;;5138978;27;20062;-55
2023/12/09 12:41:53;;;;;;;8.30;2.45;;;;;;;;;;5143422;27;20882;-56
2023/12/09 12:44:20;;;;;;;5.78;2.22;;;;;;;;;;5128642;27;20052;-55
2023/12/09 12:46:46;;;;;;;5.78;2.17;;;;;;;;;;5145779;27;20047;-57
2023/12/09 12:49:13;;;;;;;13.93;2.80;;;;;;;;;;5145477;27;20131;-56
2023/12/09 12:51:40;;;;;;;9.98;2.05;;;;;;;;;;5145767;27;20489;-55
2023/12/09 12:54:06;;;;;;;10.52;2.03;;;;;;;;;;5145701;27;20096;-55
2023/12/09 12:56:34;;;;;;;6.13;2.42;;;;;;;;;;5128994;27;20082;-55
2023/12/09 12:59:02;;;;;;;11.77;2.47;;;;;;;;;;5145642;27;20047;-58
2023/12/09 13:01:28;;;;;;;4.43;2.17;;;;;;;;;;5145151;27;20043;-55
2023/12/09 13:03:55;;;;;;;7.47;2.33;;;;;;;;;;5144798;27;20127;-54
2023/12/09 13:06:22;;;;;;;7.35;1.88;;;;;;;;;;5145970;27;20134;-57
2023/12/09 13:08:48;;;;;;;7.00;2.08;;;;;;;;;;5144625;27;20127;-54
2023/12/09 13:11:15;;;;;;;10.52;2.20;;;;;;;;;;5145841;27;20132;-55
2023/12/09 13:13:41;;;;;;;5.35;1.83;;;;;;;;;;5143840;27;20099;-56
2023/12/09 13:16:08;;;;;;;4.93;2.10;;;;;;;;;;5124489;27;20113;-54
2023/12/09 13:18:35;;;;;;;7.53;2.00;;;;;;;;;;5134622;27;20436;-57
2023/12/09 13:21:03;;;;;;;9.73;2.20;;;;;;;;;;5145114;27;20536;-55
2023/12/09 13:23:30;;;;;;;9.73;2.13;;;;;;;;;;5145168;27;20580;-55
2023/12/09 13:25:56;;;;;;;9.52;1.90;;;;;;;;;;5137194;27;20134;-55
2023/12/09 13:28:24;;;;;;;2.53;1.45;;;;;;;;;;5132240;27;20055;-54
2023/12/09 13:30:51;;;;;;;5.40;2.22;;;;;;;;;;5144717;27;20532;-59
2023/12/09 13:33:17;;;;;;;5.00;2.08;;;;;;;;;;5139132;27;20061;-55
2023/12/09 13:35:44;;;;;;;8.88;1.77;;;;;;;;;;5145256;27;20112;-55
2023/12/09 13:38:10;;;;;;;4.55;1.80;;;;;;;;;;5142186;27;20104;-57
2023/12/09 13:40:37;;;;;;;8.02;2.05;;;;;;;;;;5141981;27;20137;-55
2023/12/09 13:43:04;;;;;;;2.38;1.60;;;;;;;;;;5144857;27;20055;-57
2023/12/09 13:45:35;;;;;;;6.97;2.08;;;;;;;;;;5144816;27;20625;-55
2023/12/09 13:48:03;;;;;;;8.18;1.88;;;;;;;;;;5130772;27;20047;-56
2023/12/09 13:50:30;;;;;;;4.93;1.33;;;;;;;;;;5144073;27;20056;-57
2023/12/09 13:52:56;;;;;;;5.20;1.60;;;;;;;;;;5144398;27;20055;-55
2023/12/09 13:55:25;;;;;;;6.45;1.48;;;;;;;;;;5124956;27;20054;-55
2023/12/09 13:57:52;;;;;;;3.35;1.55;;;;;;;;;;5128992;27;20086;-56
2023/12/09 14:00:19;;;;;;;5.00;1.65;;;;;;;;;;5131082;27;20518;-56
2023/12/09 14:02:46;;;;;;;7.07;1.77;;;;;;;;;;5123192;27;20047;-57
2023/12/09 14:05:13;;;;;;;4.40;1.52;;;;;;;;;;5124990;27;20436;-56
2023/12/09 14:07:41;;;;;;;5.97;2.65;;;;;;;;;;5124148;27;20525;-55
2023/12/09 14:10:08;;;;;;;10.52;2.78;;;;;;;;;;5133818;27;20051;-55
2023/12/09 14:12:35;;;;;;;3.92;1.40;;;;;;;;;;5131948;27;20124;-57
2023/12/09 14:15:01;;;;;;;5.43;1.90;;;;;;;;;;5141183;27;20052;-58
2023/12/09 14:17:28;;;;;;;4.32;1.55;;;;;;;;;;5143722;27;20485;-56
2023/12/09 14:19:55;;;;;;;7.32;5.10;;;;;;;;;;5142846;27;20134;-57
2023/12/09 14:22:23;;;;;;;4.00;1.77;;;;;;;;;;5143120;27;20501;-57
2023/12/09 14:24:50;;;;;;;2.38;1.75;;;;;;;;;;5144506;27;20097;-57
2023/12/09 14:27:16;;;;;;;7.72;3.13;;;;;;;;;;5144389;27;20051;-56